Terminal Aerodrome Forecast
Issued by NWS Sioux Falls, SD

Home | Current Version | Previous Version | Text Only | Print | Product List | Glossary On
Versions: 1 2 3 4 5 6 7 8 9 10 11 12 13 14 15 16 17 18 19
000
FTUS43 KFSD 180841 AAA
TAFFSD
TAF AMD
KFSD 180841Z 1809/1906 14012KT P6SM BKN130 WS012/18045KT
     FM181100 17018G27KT P6SM BKN150 WS012/18045KT
     FM181600 20016G24KT P6SM BKN200
     FM182000 24008KT P6SM BKN200
     FM182300 31008KT P6SM OVC010
     FM190200 36013KT P6SM OVC008=

USA.gov is the U.S. government's official web portal to all federal, state and local government web resources and services.